sensor_id;sensor_type;location;lat;lon;timestamp;P1;durP1;ratioP1;P2;durP2;ratioP2
75774;SDS011;64505;51.458;7.556;2022-12-29T00:01:49;1.27;;;0.80;;
75774;SDS011;64505;51.458;7.556;2022-12-29T00:03:51;1.40;;;0.85;;
75774;SDS011;64505;51.458;7.556;2022-12-29T00:05:55;1.02;;;0.63;;
75774;SDS011;64505;51.458;7.556;2022-12-29T00:07:58;1.63;;;0.73;;
75774;SDS011;64505;51.458;7.556;2022-12-29T00:09:59;1.58;;;0.70;;
75774;SDS011;64505;51.458;7.556;2022-12-29T00:12:01;1.15;;;0.52;;
75774;SDS011;64505;51.458;7.556;2022-12-29T00:14:04;1.73;;;0.85;;
75774;SDS011;64505;51.458;7.556;2022-12-29T00:16:26;0.98;;;0.52;;
75774;SDS011;64505;51.458;7.556;2022-12-29T00:18:29;1.27;;;0.60;;
75774;SDS011;64505;51.458;7.556;2022-12-29T00:20:32;2.33;;;0.90;;
75774;SDS011;64505;51.458;7.556;2022-12-29T00:22:53;1.30;;;0.50;;
75774;SDS011;64505;51.458;7.556;2022-12-29T00:25:14;0.90;;;0.57;;
75774;SDS011;64505;51.458;7.556;2022-12-29T00:27:54;1.40;;;0.60;;
75774;SDS011;64505;51.458;7.556;2022-12-29T00:30:18;1.00;;;0.70;;
75774;SDS011;64505;51.458;7.556;2022-12-29T00:32:40;1.90;;;0.55;;
75774;SDS011;64505;51.458;7.556;2022-12-29T00:35:00;1.48;;;0.50;;
75774;SDS011;64505;51.458;7.556;2022-12-29T00:37:10;0.90;;;0.50;;
75774;SDS011;64505;51.458;7.556;2022-12-29T00:39:14;1.13;;;0.60;;
75774;SDS011;64505;51.458;7.556;2022-12-29T00:41:38;1.40;;;0.60;;
75774;SDS011;64505;51.458;7.556;2022-12-29T00:43:58;1.10;;;0.50;;
75774;SDS011;64505;51.458;7.556;2022-12-29T00:46:07;0.98;;;0.50;;
75774;SDS011;64505;51.458;7.556;2022-12-29T00:48:16;2.83;;;0.60;;
75774;SDS011;64505;51.458;7.556;2022-12-29T00:50:38;0.85;;;0.50;;
75774;SDS011;64505;51.458;7.556;2022-12-29T00:52:39;1.10;;;0.60;;
75774;SDS011;64505;51.458;7.556;2022-12-29T00:54:41;1.25;;;0.47;;
75774;SDS011;64505;51.458;7.556;2022-12-29T00:56:50;0.55;;;0.40;;
75774;SDS011;64505;51.458;7.556;2022-12-29T00:58:53;0.93;;;0.50;;
75774;SDS011;64505;51.458;7.556;2022-12-29T01:01:07;0.60;;;0.40;;
75774;SDS011;64505;51.458;7.556;2022-12-29T01:03:09;0.70;;;0.40;;
75774;SDS011;64505;51.458;7.556;2022-12-29T01:05:11;1.73;;;0.50;;
75774;SDS011;64505;51.458;7.556;2022-12-29T01:07:12;1.15;;;0.50;;
75774;SDS011;64505;51.458;7.556;2022-12-29T01:09:14;0.55;;;0.40;;
75774;SDS011;64505;51.458;7.556;2022-12-29T01:11:34;1.02;;;0.50;;
75774;SDS011;64505;51.458;7.556;2022-12-29T01:13:36;0.65;;;0.40;;
75774;SDS011;64505;51.458;7.556;2022-12-29T01:15:39;0.82;;;0.50;;
75774;SDS011;64505;51.458;7.556;2022-12-29T01:17:40;1.33;;;0.50;;
75774;SDS011;64505;51.458;7.556;2022-12-29T01:19:42;0.80;;;0.45;;
75774;SDS011;64505;51.458;7.556;2022-12-29T01:21:43;0.60;;;0.50;;
75774;SDS011;64505;51.458;7.556;2022-12-29T01:23:45;1.48;;;0.80;;
75774;SDS011;64505;51.458;7.556;2022-12-29T01:25:46;1.00;;;0.40;;
75774;SDS011;64505;51.458;7.556;2022-12-29T01:27:48;0.68;;;0.47;;
75774;SDS011;64505;51.458;7.556;2022-12-29T01:29:49;1.95;;;0.50;;
75774;SDS011;64505;51.458;7.556;2022-12-29T01:31:50;0.75;;;0.40;;
75774;SDS011;64505;51.458;7.556;2022-12-29T01:33:52;1.60;;;0.30;;
75774;SDS011;64505;51.458;7.556;2022-12-29T01:35:53;0.50;;;0.30;;
75774;SDS011;64505;51.458;7.556;2022-12-29T01:37:55;0.52;;;0.35;;
75774;SDS011;64505;51.458;7.556;2022-12-29T01:39:56;0.77;;;0.40;;
75774;SDS011;64505;51.458;7.556;2022-12-29T01:41:57;2.25;;;0.60;;
75774;SDS011;64505;51.458;7.556;2022-12-29T01:43:59;0.50;;;0.40;;
75774;SDS011;64505;51.458;7.556;2022-12-29T01:46:02;0.50;;;0.30;;
75774;SDS011;64505;51.458;7.556;2022-12-29T01:48:03;0.38;;;0.30;;
75774;SDS011;64505;51.458;7.556;2022-12-29T01:50:11;1.10;;;0.50;;
75774;SDS011;64505;51.458;7.556;2022-12-29T01:52:18;0.28;;;0.25;;
75774;SDS011;64505;51.458;7.556;2022-12-29T01:54:24;0.68;;;0.30;;
75774;SDS011;64505;51.458;7.556;2022-12-29T01:56:31;0.88;;;0.52;;
75774;SDS011;64505;51.458;7.556;2022-12-29T01:58:33;0.80;;;0.40;;
75774;SDS011;64505;51.458;7.556;2022-12-29T02:00:41;0.57;;;0.32;;
75774;SDS011;64505;51.458;7.556;2022-12-29T02:02:44;0.22;;;0.22;;
75774;SDS011;64505;51.458;7.556;2022-12-29T02:04:51;0.30;;;0.20;;
75774;SDS011;64505;51.458;7.556;2022-12-29T02:07:05;0.40;;;0.30;;
75774;SDS011;64505;51.458;7.556;2022-12-29T02:09:11;1.08;;;0.40;;
75774;SDS011;64505;51.458;7.556;2022-12-29T02:11:13;0.75;;;0.43;;
75774;SDS011;64505;51.458;7.556;2022-12-29T02:13:15;0.55;;;0.30;;
75774;SDS011;64505;51.458;7.556;2022-12-29T02:15:22;1.38;;;0.30;;
75774;SDS011;64505;51.458;7.556;2022-12-29T02:22:32;0.55;;;0.30;;
75774;SDS011;64505;51.458;7.556;2022-12-29T02:24:49;1.13;;;0.35;;
75774;SDS011;64505;51.458;7.556;2022-12-29T02:36:31;0.40;;;0.40;;
75774;SDS011;64505;51.458;7.556;2022-12-29T02:38:45;0.50;;;0.28;;
75774;SDS011;64505;51.458;7.556;2022-12-29T02:40:53;0.90;;;0.35;;
75774;SDS011;64505;51.458;7.556;2022-12-29T02:45:23;0.60;;;0.40;;
75774;SDS011;64505;51.458;7.556;2022-12-29T02:47:34;0.30;;;0.30;;
75774;SDS011;64505;51.458;7.556;2022-12-29T02:49:45;0.43;;;0.30;;
75774;SDS011;64505;51.458;7.556;2022-12-29T02:53:49;0.38;;;0.32;;
75774;SDS011;64505;51.458;7.556;2022-12-29T02:56:10;0.47;;;0.40;;
75774;SDS011;64505;51.458;7.556;2022-12-29T02:58:21;0.93;;;0.57;;
75774;SDS011;64505;51.458;7.556;2022-12-29T03:00:24;1.58;;;0.40;;
75774;SDS011;64505;51.458;7.556;2022-12-29T03:02:29;2.50;;;0.50;;
75774;SDS011;64505;51.458;7.556;2022-12-29T03:09:52;1.90;;;0.40;;
75774;SDS011;64505;51.458;7.556;2022-12-29T03:12:28;0.40;;;0.32;;
75774;SDS011;64505;51.458;7.556;2022-12-29T03:15:30;0.60;;;0.40;;
75774;SDS011;64505;51.458;7.556;2022-12-29T03:18:02;0.40;;;0.40;;
75774;SDS011;64505;51.458;7.556;2022-12-29T03:20:06;0.65;;;0.35;;
75774;SDS011;64505;51.458;7.556;2022-12-29T03:22:12;1.65;;;0.40;;
75774;SDS011;64505;51.458;7.556;2022-12-29T03:24:29;0.73;;;0.30;;
75774;SDS011;64505;51.458;7.556;2022-12-29T03:26:33;0.77;;;0.50;;
75774;SDS011;64505;51.458;7.556;2022-12-29T03:28:45;0.95;;;0.40;;
75774;SDS011;64505;51.458;7.556;2022-12-29T03:30:52;2.15;;;0.55;;
75774;SDS011;64505;51.458;7.556;2022-12-29T03:32:55;0.45;;;0.40;;
75774;SDS011;64505;51.458;7.556;2022-12-29T03:34:59;3.92;;;0.50;;
75774;SDS011;64505;51.458;7.556;2022-12-29T03:37:05;1.98;;;0.50;;
75774;SDS011;64505;51.458;7.556;2022-12-29T03:39:12;0.73;;;0.50;;
75774;SDS011;64505;51.458;7.556;2022-12-29T03:41:16;1.33;;;0.38;;
75774;SDS011;64505;51.458;7.556;2022-12-29T03:43:21;0.90;;;0.40;;
75774;SDS011;64505;51.458;7.556;2022-12-29T03:45:23;1.30;;;0.40;;
75774;SDS011;64505;51.458;7.556;2022-12-29T03:47:25;1.92;;;0.40;;
75774;SDS011;64505;51.458;7.556;2022-12-29T03:49:26;1.85;;;0.40;;
75774;SDS011;64505;51.458;7.556;2022-12-29T03:51:28;1.42;;;0.60;;
75774;SDS011;64505;51.458;7.556;2022-12-29T03:53:29;2.17;;;0.30;;
75774;SDS011;64505;51.458;7.556;2022-12-29T03:55:30;1.08;;;0.50;;
75774;SDS011;64505;51.458;7.556;2022-12-29T03:57:32;0.77;;;0.40;;
75774;SDS011;64505;51.458;7.556;2022-12-29T03:59:33;2.60;;;0.63;;
75774;SDS011;64505;51.458;7.556;2022-12-29T04:01:35;1.48;;;0.50;;
75774;SDS011;64505;51.458;7.556;2022-12-29T04:03:36;1.58;;;0.50;;
75774;SDS011;64505;51.458;7.556;2022-12-29T04:05:38;2.97;;;0.70;;
75774;SDS011;64505;51.458;7.556;2022-12-29T04:08:04;1.83;;;0.50;;
75774;SDS011;64505;51.458;7.556;2022-12-29T04:10:06;2.42;;;0.60;;
75774;SDS011;64505;51.458;7.556;2022-12-29T04:12:07;1.02;;;0.50;;
75774;SDS011;64505;51.458;7.556;2022-12-29T04:14:09;0.52;;;0.38;;
75774;SDS011;64505;51.458;7.556;2022-12-29T04:16:10;0.82;;;0.40;;
75774;SDS011;64505;51.458;7.556;2022-12-29T04:18:12;1.17;;;0.50;;
75774;SDS011;64505;51.458;7.556;2022-12-29T04:20:14;1.15;;;0.40;;
75774;SDS011;64505;51.458;7.556;2022-12-29T04:22:35;0.98;;;0.40;;
75774;SDS011;64505;51.458;7.556;2022-12-29T04:24:36;1.58;;;0.43;;
75774;SDS011;64505;51.458;7.556;2022-12-29T04:26:37;1.00;;;0.50;;
75774;SDS011;64505;51.458;7.556;2022-12-29T04:28:39;1.02;;;0.50;;
75774;SDS011;64505;51.458;7.556;2022-12-29T04:30:41;2.60;;;0.52;;
75774;SDS011;64505;51.458;7.556;2022-12-29T04:32:43;1.58;;;0.40;;
75774;SDS011;64505;51.458;7.556;2022-12-29T04:34:45;0.20;;;0.20;;
75774;SDS011;64505;51.458;7.556;2022-12-29T04:36:46;0.52;;;0.45;;
75774;SDS011;64505;51.458;7.556;2022-12-29T04:38:48;0.50;;;0.35;;
75774;SDS011;64505;51.458;7.556;2022-12-29T04:40:50;0.77;;;0.40;;
75774;SDS011;64505;51.458;7.556;2022-12-29T04:42:52;0.60;;;0.30;;
75774;SDS011;64505;51.458;7.556;2022-12-29T04:44:53;0.85;;;0.30;;
75774;SDS011;64505;51.458;7.556;2022-12-29T04:46:55;0.65;;;0.40;;
75774;SDS011;64505;51.458;7.556;2022-12-29T04:48:56;1.00;;;0.50;;
75774;SDS011;64505;51.458;7.556;2022-12-29T04:50:58;1.02;;;0.40;;
75774;SDS011;64505;51.458;7.556;2022-12-29T04:52:59;0.80;;;0.40;;
75774;SDS011;64505;51.458;7.556;2022-12-29T04:55:01;1.58;;;0.50;;
75774;SDS011;64505;51.458;7.556;2022-12-29T04:57:02;0.55;;;0.38;;
75774;SDS011;64505;51.458;7.556;2022-12-29T04:59:08;1.08;;;0.50;;
75774;SDS011;64505;51.458;7.556;2022-12-29T05:01:09;0.70;;;0.40;;
75774;SDS011;64505;51.458;7.556;2022-12-29T05:03:10;1.17;;;0.57;;
75774;SDS011;64505;51.458;7.556;2022-12-29T05:05:12;2.22;;;0.60;;
75774;SDS011;64505;51.458;7.556;2022-12-29T05:07:14;1.02;;;0.50;;
75774;SDS011;64505;51.458;7.556;2022-12-29T05:09:15;1.40;;;0.40;;
75774;SDS011;64505;51.458;7.556;2022-12-29T05:11:18;0.60;;;0.32;;
75774;SDS011;64505;51.458;7.556;2022-12-29T05:13:19;2.80;;;0.52;;
75774;SDS011;64505;51.458;7.556;2022-12-29T05:15:21;1.17;;;0.47;;
75774;SDS011;64505;51.458;7.556;2022-12-29T05:17:22;0.80;;;0.32;;
75774;SDS011;64505;51.458;7.556;2022-12-29T05:19:24;2.17;;;0.60;;
75774;SDS011;64505;51.458;7.556;2022-12-29T05:21:25;1.20;;;0.43;;
75774;SDS011;64505;51.458;7.556;2022-12-29T05:23:27;1.85;;;0.50;;
75774;SDS011;64505;51.458;7.556;2022-12-29T05:25:28;1.33;;;0.43;;
75774;SDS011;64505;51.458;7.556;2022-12-29T05:27:30;0.80;;;0.40;;
75774;SDS011;64505;51.458;7.556;2022-12-29T05:29:31;1.00;;;0.60;;
75774;SDS011;64505;51.458;7.556;2022-12-29T05:31:32;1.38;;;0.40;;
75774;SDS011;64505;51.458;7.556;2022-12-29T05:33:36;1.50;;;0.50;;
75774;SDS011;64505;51.458;7.556;2022-12-29T05:35:38;1.83;;;0.50;;
75774;SDS011;64505;51.458;7.556;2022-12-29T05:37:40;0.80;;;0.50;;
75774;SDS011;64505;51.458;7.556;2022-12-29T05:39:42;0.82;;;0.52;;
75774;SDS011;64505;51.458;7.556;2022-12-29T05:41:43;2.17;;;0.47;;
75774;SDS011;64505;51.458;7.556;2022-12-29T05:43:44;0.75;;;0.40;;
75774;SDS011;64505;51.458;7.556;2022-12-29T05:45:48;0.80;;;0.40;;
75774;SDS011;64505;51.458;7.556;2022-12-29T05:47:49;1.88;;;0.52;;
75774;SDS011;64505;51.458;7.556;2022-12-29T05:49:51;1.10;;;0.57;;
75774;SDS011;64505;51.458;7.556;2022-12-29T05:51:53;1.23;;;0.75;;
75774;SDS011;64505;51.458;7.556;2022-12-29T05:53:54;1.52;;;0.50;;
75774;SDS011;64505;51.458;7.556;2022-12-29T05:55:56;2.30;;;0.52;;
75774;SDS011;64505;51.458;7.556;2022-12-29T05:57:57;3.13;;;0.63;;
75774;SDS011;64505;51.458;7.556;2022-12-29T05:59:59;1.42;;;0.38;;
75774;SDS011;64505;51.458;7.556;2022-12-29T06:02:00;3.15;;;0.60;;
75774;SDS011;64505;51.458;7.556;2022-12-29T06:04:02;1.45;;;0.50;;
75774;SDS011;64505;51.458;7.556;2022-12-29T06:06:04;2.60;;;0.43;;
75774;SDS011;64505;51.458;7.556;2022-12-29T06:08:05;1.33;;;0.47;;
75774;SDS011;64505;51.458;7.556;2022-12-29T06:10:07;1.63;;;0.60;;
75774;SDS011;64505;51.458;7.556;2022-12-29T06:12:09;1.35;;;0.43;;
75774;SDS011;64505;51.458;7.556;2022-12-29T06:14:10;3.20;;;0.60;;
75774;SDS011;64505;51.458;7.556;2022-12-29T06:16:12;1.02;;;0.50;;
75774;SDS011;64505;51.458;7.556;2022-12-29T06:18:13;2.15;;;0.45;;
75774;SDS011;64505;51.458;7.556;2022-12-29T06:20:20;3.08;;;0.40;;
75774;SDS011;64505;51.458;7.556;2022-12-29T06:22:22;2.08;;;0.70;;
75774;SDS011;64505;51.458;7.556;2022-12-29T06:24:23;1.73;;;0.70;;
75774;SDS011;64505;51.458;7.556;2022-12-29T06:26:24;1.52;;;0.50;;
75774;SDS011;64505;51.458;7.556;2022-12-29T06:28:26;2.80;;;0.50;;
75774;SDS011;64505;51.458;7.556;2022-12-29T06:30:27;2.05;;;0.50;;
75774;SDS011;64505;51.458;7.556;2022-12-29T06:32:29;0.93;;;0.40;;
75774;SDS011;64505;51.458;7.556;2022-12-29T06:34:30;1.75;;;0.50;;
75774;SDS011;64505;51.458;7.556;2022-12-29T06:36:32;0.80;;;0.50;;
75774;SDS011;64505;51.458;7.556;2022-12-29T06:38:33;1.35;;;0.50;;
75774;SDS011;64505;51.458;7.556;2022-12-29T06:40:36;3.92;;;0.50;;
75774;SDS011;64505;51.458;7.556;2022-12-29T06:42:37;1.00;;;0.40;;
75774;SDS011;64505;51.458;7.556;2022-12-29T06:44:39;1.92;;;0.50;;
75774;SDS011;64505;51.458;7.556;2022-12-29T06:46:40;4.22;;;0.50;;
75774;SDS011;64505;51.458;7.556;2022-12-29T06:48:41;1.65;;;0.50;;
75774;SDS011;64505;51.458;7.556;2022-12-29T06:50:43;0.77;;;0.45;;
75774;SDS011;64505;51.458;7.556;2022-12-29T06:52:44;1.13;;;0.30;;
75774;SDS011;64505;51.458;7.556;2022-12-29T06:54:46;1.52;;;0.50;;
75774;SDS011;64505;51.458;7.556;2022-12-29T06:56:47;1.63;;;0.55;;
75774;SDS011;64505;51.458;7.556;2022-12-29T06:58:49;1.60;;;0.50;;
75774;SDS011;64505;51.458;7.556;2022-12-29T07:00:50;0.90;;;0.30;;
75774;SDS011;64505;51.458;7.556;2022-12-29T07:02:52;1.90;;;0.52;;
75774;SDS011;64505;51.458;7.556;2022-12-29T07:04:56;2.47;;;0.73;;
75774;SDS011;64505;51.458;7.556;2022-12-29T07:06:57;2.33;;;0.68;;
75774;SDS011;64505;51.458;7.556;2022-12-29T07:08:59;2.63;;;0.50;;
75774;SDS011;64505;51.458;7.556;2022-12-29T07:11:01;2.45;;;0.38;;
75774;SDS011;64505;51.458;7.556;2022-12-29T07:13:02;2.47;;;0.50;;
75774;SDS011;64505;51.458;7.556;2022-12-29T07:15:04;1.52;;;0.50;;
75774;SDS011;64505;51.458;7.556;2022-12-29T07:17:05;2.15;;;0.40;;
75774;SDS011;64505;51.458;7.556;2022-12-29T07:19:07;1.60;;;0.50;;
75774;SDS011;64505;51.458;7.556;2022-12-29T07:21:08;3.65;;;0.68;;
75774;SDS011;64505;51.458;7.556;2022-12-29T07:23:10;1.20;;;0.40;;
75774;SDS011;64505;51.458;7.556;2022-12-29T07:25:12;2.63;;;0.50;;
75774;SDS011;64505;51.458;7.556;2022-12-29T07:27:14;2.53;;;0.52;;
75774;SDS011;64505;51.458;7.556;2022-12-29T07:29:15;4.28;;;0.50;;
75774;SDS011;64505;51.458;7.556;2022-12-29T07:31:18;2.72;;;0.50;;
75774;SDS011;64505;51.458;7.556;2022-12-29T07:33:21;1.95;;;0.40;;
75774;SDS011;64505;51.458;7.556;2022-12-29T07:35:22;0.75;;;0.40;;
75774;SDS011;64505;51.458;7.556;2022-12-29T07:37:24;1.85;;;0.60;;
75774;SDS011;64505;51.458;7.556;2022-12-29T07:39:25;2.03;;;0.50;;
75774;SDS011;64505;51.458;7.556;2022-12-29T07:41:27;5.38;;;0.50;;
75774;SDS011;64505;51.458;7.556;2022-12-29T07:43:28;1.98;;;0.50;;
75774;SDS011;64505;51.458;7.556;2022-12-29T07:45:30;2.58;;;0.60;;
75774;SDS011;64505;51.458;7.556;2022-12-29T07:47:31;1.70;;;0.50;;
75774;SDS011;64505;51.458;7.556;2022-12-29T07:49:33;2.58;;;0.47;;
75774;SDS011;64505;51.458;7.556;2022-12-29T07:51:34;2.50;;;0.80;;
75774;SDS011;64505;51.458;7.556;2022-12-29T07:53:35;3.50;;;0.88;;
75774;SDS011;64505;51.458;7.556;2022-12-29T07:55:37;4.28;;;0.70;;
75774;SDS011;64505;51.458;7.556;2022-12-29T07:57:38;1.90;;;0.40;;
75774;SDS011;64505;51.458;7.556;2022-12-29T07:59:40;3.35;;;0.73;;
75774;SDS011;64505;51.458;7.556;2022-12-29T08:01:41;2.10;;;0.68;;
75774;SDS011;64505;51.458;7.556;2022-12-29T08:03:43;0.98;;;0.50;;
75774;SDS011;64505;51.458;7.556;2022-12-29T08:05:45;3.53;;;0.70;;
75774;SDS011;64505;51.458;7.556;2022-12-29T08:07:46;3.38;;;0.60;;
75774;SDS011;64505;51.458;7.556;2022-12-29T08:09:48;2.53;;;0.90;;
75774;SDS011;64505;51.458;7.556;2022-12-29T08:11:50;2.58;;;0.52;;
75774;SDS011;64505;51.458;7.556;2022-12-29T08:13:52;4.07;;;0.82;;
75774;SDS011;64505;51.458;7.556;2022-12-29T08:15:53;3.03;;;0.50;;
75774;SDS011;64505;51.458;7.556;2022-12-29T08:17:55;4.20;;;0.65;;
75774;SDS011;64505;51.458;7.556;2022-12-29T08:19:56;5.63;;;0.70;;
75774;SDS011;64505;51.458;7.556;2022-12-29T08:21:57;3.63;;;0.60;;
75774;SDS011;64505;51.458;7.556;2022-12-29T08:23:59;2.85;;;0.68;;
75774;SDS011;64505;51.458;7.556;2022-12-29T08:26:02;4.07;;;0.77;;
75774;SDS011;64505;51.458;7.556;2022-12-29T08:28:05;2.40;;;0.43;;
75774;SDS011;64505;51.458;7.556;2022-12-29T08:30:06;2.78;;;0.50;;
75774;SDS011;64505;51.458;7.556;2022-12-29T08:32:09;4.07;;;0.50;;
75774;SDS011;64505;51.458;7.556;2022-12-29T08:34:10;2.88;;;0.70;;
75774;SDS011;64505;51.458;7.556;2022-12-29T08:36:12;6.53;;;0.90;;
75774;SDS011;64505;51.458;7.556;2022-12-29T08:38:13;4.95;;;0.75;;
75774;SDS011;64505;51.458;7.556;2022-12-29T08:40:15;3.88;;;0.95;;
75774;SDS011;64505;51.458;7.556;2022-12-29T08:42:16;3.92;;;0.90;;
75774;SDS011;64505;51.458;7.556;2022-12-29T08:44:18;3.03;;;0.40;;
75774;SDS011;64505;51.458;7.556;2022-12-29T08:46:19;2.55;;;0.50;;
75774;SDS011;64505;51.458;7.556;2022-12-29T08:48:21;4.88;;;0.73;;
75774;SDS011;64505;51.458;7.556;2022-12-29T08:50:23;4.43;;;0.63;;
75774;SDS011;64505;51.458;7.556;2022-12-29T08:52:24;1.58;;;0.50;;
75774;SDS011;64505;51.458;7.556;2022-12-29T08:54:26;5.72;;;0.70;;
75774;SDS011;64505;51.458;7.556;2022-12-29T08:56:27;2.80;;;0.75;;
75774;SDS011;64505;51.458;7.556;2022-12-29T08:58:29;5.50;;;0.70;;
75774;SDS011;64505;51.458;7.556;2022-12-29T09:00:30;4.20;;;0.73;;
75774;SDS011;64505;51.458;7.556;2022-12-29T09:02:32;4.97;;;0.82;;
75774;SDS011;64505;51.458;7.556;2022-12-29T09:04:34;4.72;;;0.60;;
75774;SDS011;64505;51.458;7.556;2022-12-29T09:06:36;5.03;;;0.65;;
75774;SDS011;64505;51.458;7.556;2022-12-29T09:08:40;5.40;;;0.93;;
75774;SDS011;64505;51.458;7.556;2022-12-29T09:10:42;2.53;;;0.70;;
75774;SDS011;64505;51.458;7.556;2022-12-29T09:12:44;2.85;;;0.60;;
75774;SDS011;64505;51.458;7.556;2022-12-29T09:14:46;3.65;;;0.60;;
75774;SDS011;64505;51.458;7.556;2022-12-29T09:16:47;5.82;;;0.70;;
75774;SDS011;64505;51.458;7.556;2022-12-29T09:19:10;6.13;;;0.70;;
75774;SDS011;64505;51.458;7.556;2022-12-29T09:21:12;2.60;;;0.57;;
75774;SDS011;64505;51.458;7.556;2022-12-29T09:23:14;3.67;;;0.50;;
75774;SDS011;64505;51.458;7.556;2022-12-29T09:25:15;6.82;;;0.98;;
75774;SDS011;64505;51.458;7.556;2022-12-29T09:27:17;3.70;;;0.73;;
75774;SDS011;64505;51.458;7.556;2022-12-29T09:29:19;4.57;;;0.73;;
75774;SDS011;64505;51.458;7.556;2022-12-29T09:31:20;3.13;;;0.60;;
75774;SDS011;64505;51.458;7.556;2022-12-29T09:33:22;3.63;;;0.80;;
75774;SDS011;64505;51.458;7.556;2022-12-29T09:35:23;2.03;;;0.60;;
75774;SDS011;64505;51.458;7.556;2022-12-29T09:37:24;3.25;;;0.77;;
75774;SDS011;64505;51.458;7.556;2022-12-29T09:39:26;3.28;;;0.73;;
75774;SDS011;64505;51.458;7.556;2022-12-29T09:41:34;4.30;;;0.80;;
75774;SDS011;64505;51.458;7.556;2022-12-29T09:45:43;3.70;;;0.80;;
75774;SDS011;64505;51.458;7.556;2022-12-29T09:47:48;2.45;;;0.50;;
75774;SDS011;64505;51.458;7.556;2022-12-29T09:49:51;1.88;;;0.50;;
75774;SDS011;64505;51.458;7.556;2022-12-29T09:51:59;6.88;;;0.95;;
75774;SDS011;64505;51.458;7.556;2022-12-29T09:54:24;3.97;;;0.77;;
75774;SDS011;64505;51.458;7.556;2022-12-29T09:56:59;4.80;;;0.70;;
75774;SDS011;64505;51.458;7.556;2022-12-29T09:59:08;6.20;;;0.80;;
75774;SDS011;64505;51.458;7.556;2022-12-29T10:03:50;2.28;;;0.47;;
75774;SDS011;64505;51.458;7.556;2022-12-29T10:08:36;4.72;;;0.88;;
75774;SDS011;64505;51.458;7.556;2022-12-29T10:20:31;4.40;;;0.82;;
75774;SDS011;64505;51.458;7.556;2022-12-29T10:25:31;5.90;;;1.05;;
75774;SDS011;64505;51.458;7.556;2022-12-29T10:27:36;3.88;;;0.70;;
75774;SDS011;64505;51.458;7.556;2022-12-29T10:29:56;4.55;;;0.90;;
75774;SDS011;64505;51.458;7.556;2022-12-29T10:32:21;3.53;;;0.60;;
75774;SDS011;64505;51.458;7.556;2022-12-29T10:34:42;3.90;;;0.70;;
75774;SDS011;64505;51.458;7.556;2022-12-29T10:36:49;6.13;;;0.63;;
75774;SDS011;64505;51.458;7.556;2022-12-29T10:41:28;4.00;;;0.70;;
75774;SDS011;64505;51.458;7.556;2022-12-29T10:43:48;3.28;;;0.57;;
75774;SDS011;64505;51.458;7.556;2022-12-29T10:45:59;5.45;;;0.68;;
75774;SDS011;64505;51.458;7.556;2022-12-29T10:48:08;7.70;;;0.80;;
75774;SDS011;64505;51.458;7.556;2022-12-29T10:50:13;4.78;;;0.70;;
75774;SDS011;64505;51.458;7.556;2022-12-29T10:52:15;3.10;;;0.80;;
75774;SDS011;64505;51.458;7.556;2022-12-29T10:56:45;5.18;;;0.80;;
75774;SDS011;64505;51.458;7.556;2022-12-29T10:58:50;5.35;;;0.80;;
75774;SDS011;64505;51.458;7.556;2022-12-29T11:00:55;3.72;;;0.88;;
75774;SDS011;64505;51.458;7.556;2022-12-29T11:03:01;4.65;;;1.17;;
75774;SDS011;64505;51.458;7.556;2022-12-29T11:07:33;4.00;;;0.65;;
75774;SDS011;64505;51.458;7.556;2022-12-29T11:09:36;8.07;;;0.90;;
75774;SDS011;64505;51.458;7.556;2022-12-29T11:11:43;1.15;;;0.40;;
75774;SDS011;64505;51.458;7.556;2022-12-29T11:13:49;5.93;;;0.70;;
75774;SDS011;64505;51.458;7.556;2022-12-29T11:17:56;4.80;;;0.90;;
75774;SDS011;64505;51.458;7.556;2022-12-29T11:19:58;5.20;;;0.77;;
75774;SDS011;64505;51.458;7.556;2022-12-29T11:22:13;5.50;;;0.98;;
75774;SDS011;64505;51.458;7.556;2022-12-29T11:24:27;4.22;;;0.60;;
75774;SDS011;64505;51.458;7.556;2022-12-29T11:26:31;7.63;;;1.70;;
75774;SDS011;64505;51.458;7.556;2022-12-29T11:28:35;5.80;;;0.80;;
75774;SDS011;64505;51.458;7.556;2022-12-29T11:30:38;2.25;;;0.80;;
75774;SDS011;64505;51.458;7.556;2022-12-29T11:32:40;3.28;;;0.52;;
75774;SDS011;64505;51.458;7.556;2022-12-29T11:34:51;2.22;;;0.50;;
75774;SDS011;64505;51.458;7.556;2022-12-29T11:36:54;4.47;;;0.80;;
75774;SDS011;64505;51.458;7.556;2022-12-29T11:39:01;5.50;;;0.70;;
75774;SDS011;64505;51.458;7.556;2022-12-29T11:41:10;4.07;;;0.63;;
75774;SDS011;64505;51.458;7.556;2022-12-29T11:45:35;3.33;;;0.95;;
75774;SDS011;64505;51.458;7.556;2022-12-29T11:47:38;5.90;;;0.73;;
75774;SDS011;64505;51.458;7.556;2022-12-29T11:49:39;5.82;;;1.15;;
75774;SDS011;64505;51.458;7.556;2022-12-29T11:51:45;5.43;;;1.10;;
75774;SDS011;64505;51.458;7.556;2022-12-29T11:53:52;6.55;;;1.05;;
75774;SDS011;64505;51.458;7.556;2022-12-29T11:56:01;4.55;;;0.73;;
75774;SDS011;64505;51.458;7.556;2022-12-29T11:58:11;4.60;;;0.55;;
75774;SDS011;64505;51.458;7.556;2022-12-29T12:00:21;5.38;;;1.08;;
75774;SDS011;64505;51.458;7.556;2022-12-29T12:04:42;6.65;;;1.30;;
75774;SDS011;64505;51.458;7.556;2022-12-29T12:06:44;7.47;;;0.80;;
75774;SDS011;64505;51.458;7.556;2022-12-29T12:08:56;4.90;;;1.17;;
75774;SDS011;64505;51.458;7.556;2022-12-29T12:13:20;6.35;;;0.90;;
75774;SDS011;64505;51.458;7.556;2022-12-29T12:15:30;5.97;;;0.73;;
75774;SDS011;64505;51.458;7.556;2022-12-29T12:20:00;5.45;;;0.70;;
75774;SDS011;64505;51.458;7.556;2022-12-29T12:22:07;9.90;;;1.40;;
75774;SDS011;64505;51.458;7.556;2022-12-29T12:26:30;3.22;;;0.82;;
75774;SDS011;64505;51.458;7.556;2022-12-29T12:28:49;2.65;;;0.50;;
75774;SDS011;64505;51.458;7.556;2022-12-29T12:33:43;3.55;;;1.00;;
75774;SDS011;64505;51.458;7.556;2022-12-29T12:36:09;4.97;;;0.77;;
75774;SDS011;64505;51.458;7.556;2022-12-29T12:50:06;5.85;;;0.90;;
75774;SDS011;64505;51.458;7.556;2022-12-29T13:01:44;3.67;;;0.57;;
75774;SDS011;64505;51.458;7.556;2022-12-29T13:17:51;4.70;;;0.80;;
75774;SDS011;64505;51.458;7.556;2022-12-29T13:20:07;6.45;;;1.35;;
75774;SDS011;64505;51.458;7.556;2022-12-29T13:22:23;4.70;;;0.70;;
75774;SDS011;64505;51.458;7.556;2022-12-29T13:27:01;7.18;;;0.90;;
75774;SDS011;64505;51.458;7.556;2022-12-29T13:38:43;4.20;;;0.80;;
75774;SDS011;64505;51.458;7.556;2022-12-29T13:40:50;4.40;;;0.95;;
75774;SDS011;64505;51.458;7.556;2022-12-29T13:42:56;3.35;;;0.60;;
75774;SDS011;64505;51.458;7.556;2022-12-29T13:45:02;2.25;;;0.63;;
75774;SDS011;64505;51.458;7.556;2022-12-29T13:47:52;8.20;;;1.25;;
75774;SDS011;64505;51.458;7.556;2022-12-29T13:49:40;6.00;;;0.70;;
75774;SDS011;64505;51.458;7.556;2022-12-29T13:51:46;5.22;;;0.80;;
75774;SDS011;64505;51.458;7.556;2022-12-29T13:56:17;7.32;;;0.88;;
75774;SDS011;64505;51.458;7.556;2022-12-29T14:00:55;5.18;;;0.80;;
75774;SDS011;64505;51.458;7.556;2022-12-29T14:05:32;6.00;;;0.93;;
75774;SDS011;64505;51.458;7.556;2022-12-29T14:07:37;3.60;;;0.77;;
75774;SDS011;64505;51.458;7.556;2022-12-29T14:09:41;3.05;;;0.80;;
75774;SDS011;64505;51.458;7.556;2022-12-29T14:11:47;8.10;;;0.95;;
75774;SDS011;64505;51.458;7.556;2022-12-29T14:13:49;7.80;;;0.88;;
75774;SDS011;64505;51.458;7.556;2022-12-29T14:15:51;5.55;;;0.70;;
75774;SDS011;64505;51.458;7.556;2022-12-29T14:18:28;8.27;;;1.10;;
75774;SDS011;64505;51.458;7.556;2022-12-29T14:20:24;4.53;;;0.95;;
75774;SDS011;64505;51.458;7.556;2022-12-29T14:22:26;7.25;;;1.00;;
75774;SDS011;64505;51.458;7.556;2022-12-29T14:26:37;7.53;;;0.80;;
75774;SDS011;64505;51.458;7.556;2022-12-29T14:28:40;7.43;;;0.80;;
75774;SDS011;64505;51.458;7.556;2022-12-29T14:30:47;3.92;;;0.82;;
75774;SDS011;64505;51.458;7.556;2022-12-29T14:33:00;5.70;;;0.77;;
75774;SDS011;64505;51.458;7.556;2022-12-29T14:37:50;6.95;;;1.00;;
75774;SDS011;64505;51.458;7.556;2022-12-29T14:40:26;6.38;;;0.80;;
75774;SDS011;64505;51.458;7.556;2022-12-29T14:42:28;5.07;;;0.70;;
75774;SDS011;64505;51.458;7.556;2022-12-29T14:44:31;4.50;;;0.60;;